Osorno, Chile

10:14 AM CLT on July 23, 2014 (GMT -0400)
El Tepual International (SCTE) Elev 279 ft | 41.43 °S, 73.10 °W | Change Station

Current weather conditions updated 14 minutes ago

Mostly Cloudy
Mostly Cloudy
37 °F
Feels Like 37 °F
N
2
Wind Variable Wind from NW

Today is forecast to be nearly the same temperature as yesterday.

Today
High -- | Low -- °F
--% Chance of Precip.
Yesterday
High -- | Low -- °F
Precip. -- in
8:06 AM 5:51 PM
Waning Crescent, 10% visible
Pressure 30.42 in
Visibility 3.1 miles
Clouds Mostly Cloudy 5000 ft
Dew Point 36 °F
Humidity 93%
Rainfall 0.00 in
Snow Depth Not available.
UV 1 out of 12
Pollen Not available.
Air Quality Not available.
Flu Activity Not available.
METAR SCTE 231400Z 32002KT 5000 BR BKN050 03/02 Q1030 NOSIG

More Conditions Fewer Conditions

Pressure 30.42 in
Visibility 3.1 miles
Clouds Mostly Cloudy 5000 ft
Dew Point 36 °F
Humidity 93%
Rainfall 0.00 in
Snow Depth Not available.
UV 1 out of 12
Pollen Not available.
Air Quality Not available.
Flu Activity Not available.
METAR SCTE 231400Z 32002KT 5000 BR BKN050 03/02 Q1030 NOSIG

More Conditions Fewer Conditions

10-Day Weather Forecast

Almanac

Astronomy

Jul. 23, 2014 Rise Set
Actual Time 8:06 AM CLT 5:51 PM CLT
Civil Twilight 7:36 AM CLT 6:20 PM CLT
Nautical Twilight 7:03 AM CLT 6:54 PM CLT
Astronomical Twilight 6:30 AM CLT 7:26 PM CLT
Moon 5:18 AM CLT 3:21 PM CLT
Length of Visible Light 10h 43m
Length of Day
9h 44m
Tomorrow will be 1m 41s longer.
Waning Crescent, 10% of the Moon is Illuminated
Today
Waning Crescent
Jul 26
New
Aug 3
First Quarter
Aug 10
Full
Aug 17
Last Quarter

Yesterday's Extremes

Country Highs Country Lows

Community

WunderPhotos

Upload Photos

1,736,600 photos uploaded!

Nearby

Snow Depth

Not available.

Earthquake Activity

City Distance Mag. Time & Date
No recent earthquake activity has been reported nearby.
Minimum magnitude displayed is 2.5.

Coastal Water Temperatures

Place Temperature
No Stations Reporting

Nearby Weather Stations

There are no personal weather stations in this area.